Time;durP1;ratioP1;P1;durP2;ratioP2;P2;SDS_P1;SDS_P2;PMS_P1;PMS_P2;Temp;Humidity;BMP_temperature;BMP_pressure;BME280_temperature;BME280_humidity;BME280_pressure;Samples;Min_cycle;Max_cycle;Signal;HPM_P1;HPM_P2
2022/03/18 00:00:14;;;;;;;55.72;21.98;;;0.60;99.90;;;;;;5078190;28;20059;-72
2022/03/18 00:02:41;;;;;;;44.22;19.20;;;0.60;99.90;;;;;;5091831;28;20254;-71
2022/03/18 00:05:08;;;;;;;47.60;20.58;;;0.50;99.90;;;;;;5081981;28;20081;-72
2022/03/18 00:07:35;;;;;;;44.63;20.92;;;0.50;99.90;;;;;;5072919;28;20059;-71
2022/03/18 00:10:03;;;;;;;48.30;20.13;;;0.50;99.90;;;;;;5061312;28;20071;-70
2022/03/18 00:12:29;;;;;;;55.97;21.67;;;0.50;99.90;;;;;;5080918;28;20109;-70
2022/03/18 00:14:56;;;;;;;55.85;21.55;;;0.50;99.90;;;;;;5061986;28;20351;-73
2022/03/18 00:17:23;;;;;;;51.65;22.52;;;0.50;99.90;;;;;;5061625;28;20585;-73
2022/03/18 00:19:50;;;;;;;48.78;21.88;;;0.50;99.90;;;;;;5079848;28;20501;-73
2022/03/18 00:22:17;;;;;;;44.83;20.98;;;0.50;99.90;;;;;;5061185;28;20048;-74
2022/03/18 00:24:43;;;;;;;44.05;21.98;;;0.50;99.90;;;;;;5080204;28;20067;-74
2022/03/18 00:27:10;;;;;;;44.95;21.95;;;0.40;99.90;;;;;;5061595;28;20071;-74
2022/03/18 00:29:38;;;;;;;52.25;21.15;;;0.40;99.90;;;;;;5078126;28;20032;-74
2022/03/18 00:32:04;;;;;;;50.30;20.10;;;0.30;99.90;;;;;;5067122;28;20143;-73
2022/03/18 00:34:33;;;;;;;48.83;22.38;;;0.40;99.90;;;;;;5081487;28;20047;-73
2022/03/18 00:37:00;;;;;;;45.53;22.58;;;0.50;99.90;;;;;;5099627;28;20286;-73
2022/03/18 00:39:27;;;;;;;56.03;24.52;;;0.50;99.90;;;;;;5065961;28;20048;-74
2022/03/18 00:41:53;;;;;;;49.08;22.85;;;0.50;99.90;;;;;;5061118;28;20442;-73
2022/03/18 00:44:20;;;;;;;52.55;21.88;;;0.40;99.90;;;;;;5065037;28;20052;-74
2022/03/18 00:46:47;;;;;;;49.40;24.05;;;0.40;99.90;;;;;;5061641;28;20135;-71
2022/03/18 00:52:06;;;;;;;62.60;25.58;;;0.50;99.90;;;;;;5061532;28;20048;-73
2022/03/18 00:54:39;;;;;;;50.85;25.48;;;0.40;99.90;;;;;;5061381;28;20628;-74
2022/03/18 00:57:06;;;;;;;59.53;25.50;;;0.30;99.90;;;;;;5061535;28;20142;-71
2022/03/18 00:59:33;;;;;;;60.80;28.80;;;0.40;99.90;;;;;;5060763;28;20256;-73
2022/03/18 01:02:00;;;;;;;67.47;29.60;;;0.60;99.90;;;;;;5065190;28;20047;-73
2022/03/18 01:04:30;;;;;;;64.75;30.55;;;0.60;99.90;;;;;;5100533;28;20039;-73
2022/03/18 01:06:58;;;;;;;63.70;29.13;;;0.60;99.90;;;;;;5081249;28;20043;-73
2022/03/18 01:09:26;;;;;;;68.97;29.35;;;0.60;99.90;;;;;;5057692;28;20257;-73
2022/03/18 01:11:54;;;;;;;58.33;25.65;;;0.60;99.90;;;;;;5060985;28;20052;-73
2022/03/18 01:14:21;;;;;;;51.53;24.00;;;0.50;99.90;;;;;;5079801;28;20059;-73
2022/03/18 01:16:49;;;;;;;50.83;23.75;;;0.30;99.90;;;;;;5059775;28;20076;-71
2022/03/18 01:19:16;;;;;;;44.03;22.90;;;0.30;99.90;;;;;;5044355;28;20036;-72
2022/03/18 01:21:43;;;;;;;48.60;24.45;;;0.20;99.90;;;;;;5060797;28;20051;-74
2022/03/18 01:24:10;;;;;;;52.15;23.13;;;0.20;99.90;;;;;;5061226;28;20048;-73
2022/03/18 01:26:37;;;;;;;56.58;25.65;;;0.10;99.90;;;;;;5061358;28;20131;-72
2022/03/18 01:29:05;;;;;;;50.10;24.75;;;0.10;99.90;;;;;;5077507;28;20055;-74
2022/03/18 01:31:31;;;;;;;49.88;25.10;;;0.20;99.90;;;;;;5063854;28;20134;-73
2022/03/18 01:33:58;;;;;;;54.20;26.88;;;0.10;99.90;;;;;;5078845;28;20175;-72
2022/03/18 01:36:25;;;;;;;50.55;25.42;;;0.20;99.90;;;;;;5063142;23;20045;-74
2022/03/18 01:38:52;;;;;;;59.10;28.35;;;0.00;99.90;;;;;;5010584;28;20056;-74
2022/03/18 01:41:19;;;;;;;57.60;25.17;;;0.10;99.90;;;;;;5019588;28;20128;-75
2022/03/18 01:43:47;;;;;;;59.30;26.85;;;0.10;99.90;;;;;;5023029;28;20797;-74
2022/03/18 01:46:16;;;;;;;53.78;28.13;;;0.10;99.90;;;;;;5022813;28;20563;-74
2022/03/18 01:48:43;;;;;;;57.92;27.02;;;0.00;99.90;;;;;;5012944;28;20478;-74
2022/03/18 01:51:10;;;;;;;58.78;28.42;;;0.10;99.90;;;;;;5001984;28;20573;-74
2022/03/18 01:53:38;;;;;;;66.32;28.48;;;0.10;99.90;;;;;;4986146;28;20085;-74
2022/03/18 01:56:06;;;;;;;67.43;28.30;;;0.10;99.90;;;;;;4984890;28;20061;-73
2022/03/18 01:58:33;;;;;;;61.15;26.70;;;0.00;99.90;;;;;;5004549;28;20660;-74
2022/03/18 02:01:01;;;;;;;56.92;26.30;;;-0.10;99.90;;;;;;5006727;28;20495;-74
2022/03/18 02:03:28;;;;;;;53.72;27.40;;;-0.20;99.90;;;;;;4988963;28;20049;-74
2022/03/18 02:05:56;;;;;;;52.30;27.35;;;-0.20;99.90;;;;;;4996868;28;20145;-74
2022/03/18 02:08:24;;;;;;;81.20;31.23;;;-0.20;99.90;;;;;;4966299;28;20041;-74
2022/03/18 02:10:51;;;;;;;70.55;30.67;;;-0.10;99.90;;;;;;4987979;28;20166;-74
2022/03/18 02:13:18;;;;;;;50.55;25.33;;;-0.10;99.90;;;;;;5014548;28;20696;-74
2022/03/18 02:15:45;;;;;;;66.50;28.85;;;-0.20;99.90;;;;;;5003833;28;20103;-74
2022/03/18 02:18:11;;;;;;;61.90;29.08;;;-0.20;99.90;;;;;;5023063;28;20905;-73
2022/03/18 02:20:38;;;;;;;61.05;26.80;;;-0.10;99.90;;;;;;5021609;28;20053;-73
2022/03/18 02:23:05;;;;;;;67.65;27.90;;;-0.10;99.90;;;;;;4987671;28;20515;-75
2022/03/18 02:25:32;;;;;;;61.22;26.23;;;-0.10;99.90;;;;;;5002954;28;20096;-74
2022/03/18 02:28:02;;;;;;;57.47;25.23;;;-0.20;99.90;;;;;;4987161;28;20061;-74
2022/03/18 02:30:31;;;;;;;62.35;26.23;;;-0.10;99.90;;;;;;5009720;28;20050;-73
2022/03/18 02:32:58;;;;;;;59.75;25.98;;;-0.20;99.90;;;;;;4973552;28;20275;-74
2022/03/18 02:35:28;;;;;;;55.97;25.30;;;-0.30;99.90;;;;;;4959613;28;20426;-74
2022/03/18 02:37:59;;;;;;;54.70;24.05;;;-0.30;99.90;;;;;;4965554;28;20155;-74
2022/03/18 02:40:27;;;;;;;55.15;24.13;;;-0.40;99.90;;;;;;4969965;28;20129;-74
2022/03/18 02:42:54;;;;;;;58.28;24.58;;;-0.30;99.90;;;;;;4996017;28;20539;-74
2022/03/18 02:45:21;;;;;;;61.60;24.85;;;-0.40;99.90;;;;;;5004305;28;20049;-74
2022/03/18 02:47:48;;;;;;;48.83;23.10;;;-0.30;99.90;;;;;;5019207;28;20084;-74
2022/03/18 02:50:17;;;;;;;80.97;27.67;;;-0.30;99.90;;;;;;5001927;28;20140;-73
2022/03/18 02:52:44;;;;;;;57.50;24.17;;;-0.30;99.90;;;;;;4983638;28;20052;-74
2022/03/18 02:55:11;;;;;;;62.28;25.27;;;-0.30;99.90;;;;;;4988781;28;20100;-73
2022/03/18 02:57:38;;;;;;;57.10;24.27;;;-0.30;99.90;;;;;;5020533;28;20358;-74
2022/03/18 03:00:06;;;;;;;58.55;23.58;;;-0.30;99.90;;;;;;4990798;28;20053;-74
2022/03/18 03:02:33;;;;;;;60.33;25.55;;;-0.20;99.90;;;;;;4996869;28;20496;-74
2022/03/18 03:08:01;;;;;;;47.70;21.08;;;-0.30;99.90;;;;;;5002079;28;20062;-74
2022/03/18 03:10:29;;;;;;;54.88;21.85;;;-0.40;99.90;;;;;;4985234;28;20520;-74
2022/03/18 03:12:58;;;;;;;51.78;20.67;;;-0.40;99.90;;;;;;4991949;28;20050;-74
2022/03/18 03:15:25;;;;;;;56.85;21.67;;;-0.40;99.90;;;;;;5020983;28;20045;-74
2022/03/18 03:17:52;;;;;;;48.65;20.95;;;-0.50;99.90;;;;;;5021181;28;20049;-74
2022/03/18 03:20:19;;;;;;;62.63;22.95;;;-0.50;99.90;;;;;;5020790;28;20491;-74
2022/03/18 03:22:46;;;;;;;75.85;26.70;;;-0.50;99.90;;;;;;5020485;28;20448;-74
2022/03/18 03:25:13;;;;;;;60.47;24.70;;;-0.50;99.90;;;;;;5004819;28;20124;-74
2022/03/18 03:27:40;;;;;;;45.53;21.40;;;-0.60;99.90;;;;;;5003890;28;20081;-74
2022/03/18 03:30:09;;;;;;;47.13;22.48;;;-0.60;99.90;;;;;;5008733;28;20339;-74
2022/03/18 03:32:36;;;;;;;44.45;22.00;;;-0.60;99.90;;;;;;4998115;28;20568;-72
2022/03/18 03:35:05;;;;;;;48.45;23.42;;;-0.60;99.90;;;;;;5000663;28;20057;-72
2022/03/18 03:37:31;;;;;;;58.67;25.83;;;-0.60;99.90;;;;;;4983803;28;20162;-72
2022/03/18 03:39:58;;;;;;;64.57;25.65;;;-0.70;99.90;;;;;;5001649;28;20057;-74
2022/03/18 03:42:25;;;;;;;57.78;26.05;;;-0.70;99.90;;;;;;5009564;28;20479;-74
2022/03/18 03:44:52;;;;;;;49.88;21.65;;;-0.80;99.90;;;;;;5008477;28;20049;-73
2022/03/18 03:47:19;;;;;;;56.70;26.42;;;-0.70;99.90;;;;;;5001147;28;20046;-73
2022/03/18 03:49:45;;;;;;;54.45;25.25;;;-0.60;99.90;;;;;;4982487;28;20272;-75
2022/03/18 03:52:12;;;;;;;53.97;23.83;;;-0.40;99.90;;;;;;4964239;28;20508;-75
2022/03/18 03:54:40;;;;;;;52.15;23.25;;;-0.60;99.90;;;;;;4969408;28;20125;-72
2022/03/18 03:57:08;;;;;;;41.78;19.27;;;-0.60;99.90;;;;;;5000868;28;20050;-72
2022/03/18 03:59:35;;;;;;;42.70;20.00;;;-0.60;99.90;;;;;;5004302;28;20045;-71
2022/03/18 04:02:03;;;;;;;64.43;24.90;;;-0.50;99.90;;;;;;5001621;28;20500;-72
2022/03/18 04:04:31;;;;;;;59.03;23.08;;;-0.50;99.90;;;;;;4983470;28;20050;-72
2022/03/18 04:06:59;;;;;;;49.63;24.13;;;-0.80;99.90;;;;;;4992811;28;20130;-72
2022/03/18 04:09:26;;;;;;;48.53;22.50;;;-0.90;99.90;;;;;;4981138;28;20050;-72
2022/03/18 04:11:52;;;;;;;48.88;20.58;;;-0.90;99.90;;;;;;4964045;28;20100;-74
2022/03/18 04:14:20;;;;;;;57.15;23.38;;;-0.80;99.90;;;;;;4964490;28;20484;-73
2022/03/18 04:16:46;;;;;;;43.30;20.20;;;-0.70;99.90;;;;;;4980390;28;20774;-72
2022/03/18 04:19:13;;;;;;;53.20;21.52;;;-0.70;99.90;;;;;;4983161;28;20074;-72
2022/03/18 04:21:41;;;;;;;57.38;20.67;;;-0.80;99.90;;;;;;5000266;28;20042;-72
2022/03/18 04:24:08;;;;;;;46.40;19.15;;;-0.80;99.90;;;;;;5000146;28;20438;-73
2022/03/18 04:26:40;;;;;;;44.72;20.17;;;-0.80;99.90;;;;;;4999701;28;20137;-73
2022/03/18 04:29:12;;;;;;;45.90;19.80;;;-0.80;99.90;;;;;;5003744;28;20054;-73
2022/03/18 04:31:40;;;;;;;49.67;19.70;;;-0.90;99.90;;;;;;5003643;28;20057;-74
2022/03/18 04:34:06;;;;;;;34.30;18.45;;;-0.70;99.90;;;;;;5001405;28;20484;-72
2022/03/18 04:36:33;;;;;;;41.45;18.17;;;-0.60;99.90;;;;;;5008828;28;20128;-73
2022/03/18 04:39:01;;;;;;;46.63;18.27;;;-0.70;99.90;;;;;;5015079;28;20268;-73
2022/03/18 04:41:28;;;;;;;43.53;17.45;;;-0.90;99.90;;;;;;4997677;28;20046;-73
2022/03/18 04:43:55;;;;;;;43.75;16.63;;;-0.90;99.90;;;;;;5017914;28;20045;-72
2022/03/18 04:46:21;;;;;;;32.00;16.10;;;-1.00;99.90;;;;;;4987617;28;20680;-73
2022/03/18 04:48:48;;;;;;;34.50;16.60;;;-0.90;99.90;;;;;;5000156;28;20091;-73
2022/03/18 04:51:15;;;;;;;41.67;17.40;;;-0.70;99.90;;;;;;4982580;28;20077;-72
2022/03/18 04:53:42;;;;;;;41.80;16.63;;;-0.70;99.90;;;;;;5000812;28;20073;-73
2022/03/18 04:57:15;;;;;;;40.53;16.95;;;-0.80;99.90;;;;;;4982094;28;20046;-73
2022/03/18 04:58:56;;;;;;;32.55;16.15;;;-0.90;99.90;;;;;;5004828;28;20054;-73
2022/03/18 05:01:23;;;;;;;31.75;16.35;;;-1.00;99.90;;;;;;5003773;28;20046;-73
2022/03/18 05:03:50;;;;;;;34.25;17.42;;;-1.20;99.90;;;;;;4980343;28;20078;-73
2022/03/18 05:06:17;;;;;;;32.05;16.40;;;-1.20;99.90;;;;;;4962998;28;20054;-72
2022/03/18 05:08:44;;;;;;;44.97;19.77;;;-1.20;99.90;;;;;;4981621;28;20081;-73
2022/03/18 05:11:12;;;;;;;40.47;18.30;;;-1.20;99.90;;;;;;4999445;28;20539;-72
2022/03/18 05:13:39;;;;;;;29.65;17.90;;;-1.20;99.90;;;;;;5001012;28;20128;-73
2022/03/18 05:16:06;;;;;;;41.38;18.23;;;-1.20;99.90;;;;;;4996022;28;20074;-73
2022/03/18 05:18:34;;;;;;;36.95;18.15;;;-1.30;99.90;;;;;;4985787;28;20128;-73
2022/03/18 05:21:01;;;;;;;41.88;19.10;;;-1.20;99.90;;;;;;4996491;28;20520;-73
2022/03/18 05:23:27;;;;;;;39.63;17.27;;;-1.20;99.90;;;;;;4982842;28;20123;-72
2022/03/18 05:25:54;;;;;;;32.35;16.35;;;-1.20;99.90;;;;;;5000339;28;20070;-72
2022/03/18 05:28:21;;;;;;;40.28;17.52;;;-1.20;99.90;;;;;;4999353;28;20053;-72
2022/03/18 05:30:48;;;;;;;42.25;16.95;;;-1.10;99.90;;;;;;5007137;28;20048;-72
2022/03/18 05:33:15;;;;;;;38.33;17.05;;;-1.30;99.90;;;;;;4966162;28;20424;-72
2022/03/18 05:35:41;;;;;;;51.95;21.02;;;-1.30;99.90;;;;;;4980740;28;20356;-72
2022/03/18 05:38:08;;;;;;;45.15;18.13;;;-1.20;99.90;;;;;;4969279;28;20049;-73
2022/03/18 05:40:35;;;;;;;34.10;16.75;;;-1.20;99.90;;;;;;4999687;28;20712;-73
2022/03/18 05:43:01;;;;;;;40.80;17.92;;;-1.20;99.90;;;;;;4982580;28;20050;-72
2022/03/18 05:45:28;;;;;;;48.35;18.63;;;-1.20;99.90;;;;;;4999335;28;20077;-72
2022/03/18 05:47:55;;;;;;;43.85;17.30;;;-1.20;99.90;;;;;;4997175;28;20142;-72
2022/03/18 05:50:22;;;;;;;46.83;17.92;;;-1.20;99.90;;;;;;4981617;28;20619;-72
2022/03/18 05:52:48;;;;;;;41.53;18.92;;;-1.20;99.90;;;;;;4983033;28;20081;-72
2022/03/18 05:55:15;;;;;;;40.58;19.08;;;-1.20;99.90;;;;;;4999646;28;20579;-72
2022/03/18 05:57:43;;;;;;;43.60;17.95;;;-1.20;99.90;;;;;;4984089;28;20042;-73
2022/03/18 06:00:12;;;;;;;50.75;20.98;;;-1.20;99.90;;;;;;4991718;28;20532;-72
2022/03/18 06:02:39;;;;;;;57.40;22.20;;;-1.10;99.90;;;;;;4995374;28;20050;-72
2022/03/18 06:05:06;;;;;;;51.55;19.88;;;-1.10;99.90;;;;;;5000259;28;20044;-73
2022/03/18 06:07:33;;;;;;;43.30;20.20;;;-1.10;99.90;;;;;;4999211;28;20093;-73
2022/03/18 06:12:49;;;;;;;50.30;18.42;;;-1.20;99.90;;;;;;4982668;28;20060;-72
2022/03/18 06:15:16;;;;;;;39.58;18.55;;;-1.20;99.90;;;;;;4980208;28;20149;-72
2022/03/18 06:17:43;;;;;;;45.47;21.20;;;-1.20;99.90;;;;;;4963244;28;20050;-73
2022/03/18 06:20:10;;;;;;;48.47;18.85;;;-1.30;99.90;;;;;;4989006;28;20193;-73
2022/03/18 06:22:37;;;;;;;38.58;19.42;;;-1.40;99.90;;;;;;4999523;28;20403;-73
2022/03/18 06:25:04;;;;;;;40.38;18.05;;;-1.40;99.90;;;;;;4982688;28;20520;-72
2022/03/18 06:27:32;;;;;;;34.05;17.33;;;-1.40;99.90;;;;;;4967945;28;20050;-73
2022/03/18 06:29:58;;;;;;;40.20;19.40;;;-1.30;99.90;;;;;;4990833;28;20056;-72
2022/03/18 06:32:25;;;;;;;39.45;17.27;;;-1.30;99.90;;;;;;5000567;28;20080;-72
2022/03/18 06:34:52;;;;;;;35.60;19.05;;;-1.30;99.90;;;;;;4988066;28;20403;-72
2022/03/18 06:37:19;;;;;;;41.33;18.90;;;-1.30;99.90;;;;;;4985189;28;20463;-72
2022/03/18 06:39:45;;;;;;;42.60;17.80;;;-1.30;99.90;;;;;;5002650;28;20127;-71
2022/03/18 06:42:12;;;;;;;37.75;18.63;;;-1.20;99.90;;;;;;5003265;28;20077;-72
2022/03/18 06:44:39;;;;;;;41.35;18.30;;;-1.10;99.90;;;;;;5003450;28;20050;-72
2022/03/18 06:47:06;;;;;;;37.47;17.63;;;-1.10;99.90;;;;;;5002811;28;20409;-72
2022/03/18 06:49:33;;;;;;;35.63;18.25;;;-1.10;99.90;;;;;;4985627;28;20120;-72
2022/03/18 06:52:00;;;;;;;46.78;19.73;;;-1.10;99.90;;;;;;4997918;28;20137;-72
2022/03/18 06:54:27;;;;;;;43.95;19.00;;;-1.00;99.90;;;;;;5021987;28;20428;-72
2022/03/18 06:56:54;;;;;;;34.03;18.67;;;-1.00;99.90;;;;;;5010932;28;20254;-73
2022/03/18 06:59:20;;;;;;;37.42;20.65;;;-0.90;99.90;;;;;;5001267;28;20124;-73
2022/03/18 07:01:50;;;;;;;40.15;19.40;;;-1.00;99.90;;;;;;4971370;28;20204;-72
2022/03/18 07:04:22;;;;;;;39.78;20.20;;;-0.90;99.90;;;;;;4982746;28;20211;-72
2022/03/18 07:06:48;;;;;;;42.05;19.33;;;-0.90;99.90;;;;;;4980803;28;20230;-72
2022/03/18 07:09:15;;;;;;;32.60;17.73;;;-0.80;99.90;;;;;;4991873;28;20077;-72
2022/03/18 07:11:42;;;;;;;37.42;18.52;;;-0.80;99.90;;;;;;4986063;28;20046;-73
2022/03/18 07:14:09;;;;;;;44.13;19.58;;;-0.70;99.90;;;;;;4993205;28;20184;-73
2022/03/18 07:19:21;;;;;;;44.28;22.50;;;-0.40;99.90;;;;;;4984586;28;20266;-72
2022/03/18 07:21:48;;;;;;;44.15;21.55;;;-0.30;99.90;;;;;;5001551;28;20054;-72
2022/03/18 07:24:14;;;;;;;48.05;21.35;;;-0.20;99.90;;;;;;5000044;28;20077;-72
2022/03/18 07:26:41;;;;;;;43.75;19.67;;;0.00;99.90;;;;;;4984536;28;20460;-72
2022/03/18 07:29:08;;;;;;;192.45;79.78;;;0.00;99.90;;;;;;5003508;28;20069;-72
2022/03/18 07:31:34;;;;;;;61.28;29.20;;;0.40;99.90;;;;;;4999832;28;20407;-72
2022/03/18 07:34:01;;;;;;;65.97;27.88;;;0.50;99.90;;;;;;5001408;28;20053;-72
2022/03/18 07:36:28;;;;;;;42.13;22.48;;;0.60;99.90;;;;;;4995231;23;20208;-76
2022/03/18 07:38:55;;;;;;;47.67;22.85;;;0.80;99.90;;;;;;5070569;22;20477;-70
2022/03/18 07:41:22;;;;;;;47.38;22.63;;;0.90;99.90;;;;;;5029352;28;20157;-71
2022/03/18 07:43:49;;;;;;;50.35;21.85;;;1.00;99.90;;;;;;5024053;28;20072;-71
2022/03/18 07:46:16;;;;;;;51.35;24.98;;;1.10;99.90;;;;;;5041616;28;20041;-70
2022/03/18 07:48:44;;;;;;;54.50;23.23;;;1.30;99.90;;;;;;5023191;28;20420;-71
2022/03/18 07:51:12;;;;;;;39.40;22.30;;;1.50;99.90;;;;;;5039880;28;20127;-71
2022/03/18 07:53:38;;;;;;;89.80;27.60;;;1.70;99.90;;;;;;5041864;28;20509;-70
2022/03/18 07:56:05;;;;;;;40.08;23.70;;;2.10;99.90;;;;;;5023049;28;20079;-72
2022/03/18 07:58:32;;;;;;;50.72;24.15;;;2.60;99.90;;;;;;5036875;28;20077;-72
2022/03/18 08:00:59;;;;;;;57.17;24.60;;;3.10;99.90;;;;;;5033073;28;20668;-72
2022/03/18 08:03:26;;;;;;;42.20;24.70;;;3.40;99.90;;;;;;5023297;28;20049;-72
2022/03/18 08:05:52;;;;;;;28.23;18.30;;;3.70;99.90;;;;;;5002436;28;20407;-72
2022/03/18 08:08:19;;;;;;;28.98;23.50;;;4.10;99.90;;;;;;5023506;28;20075;-71
2022/03/18 08:10:46;;;;;;;27.33;24.55;;;4.50;99.90;;;;;;5040101;28;20130;-71
2022/03/18 08:13:15;;;;;;;22.27;19.15;;;4.90;99.90;;;;;;5017916;28;20527;-71
2022/03/18 08:15:44;;;;;;;43.13;32.72;;;5.20;99.90;;;;;;5002497;28;20132;-71
2022/03/18 08:18:11;;;;;;;22.83;19.25;;;5.40;99.90;;;;;;5021284;28;20053;-71
2022/03/18 08:20:40;;;;;;;27.85;20.83;;;5.50;99.90;;;;;;5018688;28;20049;-72
2022/03/18 08:23:14;;;;;;;35.83;26.45;;;5.60;99.90;;;;;;5035099;28;20051;-72
2022/03/18 08:25:41;;;;;;;33.50;21.92;;;5.70;99.90;;;;;;5023174;28;20040;-73
2022/03/18 08:28:08;;;;;;;110.40;60.40;;;5.90;99.90;;;;;;5038418;28;20410;-73
2022/03/18 08:30:36;;;;;;;32.63;21.50;;;6.20;99.90;;;;;;5006475;28;20135;-72
2022/03/18 08:33:03;;;;;;;43.28;31.67;;;6.30;99.90;;;;;;5016561;28;20453;-73
2022/03/18 08:35:30;;;;;;;23.90;21.05;;;6.40;99.90;;;;;;5024265;28;20140;-72
2022/03/18 08:37:56;;;;;;;22.67;20.52;;;6.50;99.90;;;;;;5023050;28;20213;-73
2022/03/18 08:40:28;;;;;;;20.55;18.95;;;6.60;99.90;;;;;;5022123;28;20302;-73
2022/03/18 08:42:57;;;;;;;21.52;19.60;;;6.70;99.90;;;;;;5041050;28;20541;-73
2022/03/18 08:45:25;;;;;;;23.50;21.70;;;7.00;99.90;;;;;;5021959;28;20068;-73
2022/03/18 08:47:53;;;;;;;23.85;21.38;;;7.10;99.90;;;;;;5037789;28;20076;-72
2022/03/18 08:50:22;;;;;;;24.27;20.13;;;7.00;99.90;;;;;;5002378;28;20077;-71
2022/03/18 08:52:53;;;;;;;22.00;20.13;;;7.20;99.90;;;;;;5037982;28;20053;-73
2022/03/18 08:55:21;;;;;;;20.75;18.92;;;7.30;99.90;;;;;;5022479;28;20095;-73
2022/03/18 08:57:48;;;;;;;23.98;21.98;;;7.70;99.90;;;;;;5022697;28;20466;-72
2022/03/18 09:00:16;;;;;;;22.67;21.08;;;7.70;99.90;;;;;;5014189;28;20045;-72
2022/03/18 09:02:44;;;;;;;24.70;22.70;;;8.00;99.90;;;;;;5027889;28;20065;-72
2022/03/18 09:05:12;;;;;;;24.02;22.30;;;8.00;99.90;;;;;;5038076;28;20048;-72
2022/03/18 09:07:42;;;;;;;24.63;22.65;;;8.10;99.90;;;;;;5022303;28;20049;-72
2022/03/18 09:10:10;;;;;;;24.40;22.70;;;7.50;99.90;;;;;;5039587;28;20142;-72
2022/03/18 09:12:44;;;;;;;24.15;22.58;;;7.50;99.90;;;;;;5040692;28;20380;-72
2022/03/18 09:15:11;;;;;;;24.33;22.63;;;7.40;99.90;;;;;;5039608;28;20120;-73
2022/03/18 09:17:38;;;;;;;25.02;23.30;;;7.60;99.90;;;;;;5022828;28;20095;-72
2022/03/18 09:20:06;;;;;;;25.67;23.48;;;8.20;99.90;;;;;;5038771;28;20057;-72
2022/03/18 09:22:33;;;;;;;25.08;23.20;;;8.10;99.90;;;;;;5039986;28;20037;-72
2022/03/18 09:25:00;;;;;;;24.92;23.05;;;8.00;99.90;;;;;;5022424;28;20152;-72
2022/03/18 09:27:27;;;;;;;25.05;23.15;;;8.20;99.90;;;;;;5024124;28;20033;-72
2022/03/18 09:29:53;;;;;;;25.08;23.30;;;8.90;99.90;;;;;;5010699;28;20241;-72
2022/03/18 09:32:20;;;;;;;26.70;24.45;;;9.30;99.90;;;;;;5028107;28;20394;-72
2022/03/18 09:34:46;;;;;;;25.80;23.52;;;9.40;99.90;;;;;;5004766;28;20339;-71
2022/03/18 09:37:13;;;;;;;24.10;22.38;;;9.40;99.90;;;;;;5039118;28;20053;-72
2022/03/18 09:39:43;;;;;;;23.80;22.27;;;9.30;99.90;;;;;;5039989;28;20060;-71
2022/03/18 09:42:10;;;;;;;25.13;23.27;;;9.30;99.90;;;;;;5005074;28;20068;-72
2022/03/18 09:44:38;;;;;;;24.33;22.30;;;9.00;99.90;;;;;;5039735;28;20083;-72
2022/03/18 09:47:06;;;;;;;23.00;21.42;;;8.90;99.90;;;;;;5021367;28;20347;-72
2022/03/18 09:49:35;;;;;;;25.30;23.35;;;9.10;99.90;;;;;;5023260;28;20350;-72
2022/03/18 09:52:05;;;;;;;26.15;24.08;;;9.60;99.90;;;;;;5019703;28;20053;-72
2022/03/18 09:54:32;;;;;;;25.95;24.05;;;9.70;99.90;;;;;;5034867;28;20664;-72
2022/03/18 09:57:01;;;;;;;25.35;23.38;;;9.70;99.90;;;;;;5038815;28;20045;-72
2022/03/18 09:59:28;;;;;;;25.73;23.92;;;9.30;99.90;;;;;;5016606;28;20080;-72
2022/03/18 10:02:20;;;;;;;27.00;24.98;;;9.50;99.90;;;;;;5015834;28;20052;-72
2022/03/18 10:04:57;;;;;;;26.80;24.98;;;9.10;99.90;;;;;;5037477;28;20045;-72
2022/03/18 10:07:25;;;;;;;24.02;22.52;;;9.40;99.90;;;;;;5043026;28;20131;-72
2022/03/18 10:10:14;;;;;;;26.13;24.27;;;8.90;99.90;;;;;;5042595;28;20049;-72
2022/03/18 10:12:47;;;;;;;26.45;24.58;;;8.60;99.90;;;;;;5043273;28;20142;-72
2022/03/18 10:15:16;;;;;;;24.98;23.17;;;8.80;99.90;;;;;;5025045;28;20052;-72
2022/03/18 10:17:51;;;;;;;26.17;24.40;;;8.50;99.90;;;;;;5043507;28;20037;-72
2022/03/18 10:20:28;;;;;;;26.42;24.05;;;8.80;99.90;;;;;;5039246;28;20099;-72
2022/03/18 10:23:15;;;;;;;25.98;24.58;;;9.10;99.90;;;;;;5042767;28;20053;-72
2022/03/18 10:25:48;;;;;;;26.65;25.02;;;9.00;99.90;;;;;;5017797;28;20041;-72
2022/03/18 10:28:14;;;;;;;25.80;23.85;;;9.00;99.90;;;;;;5039197;28;20386;-71
2022/03/18 10:30:42;;;;;;;26.83;24.63;;;9.00;99.90;;;;;;5036057;28;20045;-71
2022/03/18 10:33:12;;;;;;;26.95;25.08;;;9.40;99.90;;;;;;5011371;28;20782;-71
2022/03/18 10:38:34;;;;;;;25.80;23.75;;;9.60;99.90;;;;;;5043247;28;20052;-71
2022/03/18 10:41:07;;;;;;;;;;;10.00;99.90;;;;;;5044423;28;20052;-71
2022/03/18 10:43:54;;;;;;;27.98;26.05;;;9.70;99.90;;;;;;5024833;28;20781;-71
2022/03/18 10:46:22;;;;;;;25.95;24.10;;;9.70;99.90;;;;;;5041804;28;20119;-71
2022/03/18 10:49:06;;;;;;;25.85;23.90;;;10.00;99.90;;;;;;4997740;28;20073;-72
2022/03/18 10:51:34;;;;;;;26.45;24.48;;;10.10;99.90;;;;;;5022344;28;20053;-71
2022/03/18 10:54:01;;;;;;;25.55;23.85;;;10.30;99.90;;;;;;5004989;28;20091;-72
2022/03/18 10:56:27;;;;;;;28.33;25.77;;;10.20;99.90;;;;;;5035948;28;20671;-72
2022/03/18 10:58:54;;;;;;;27.05;24.75;;;10.00;99.90;;;;;;5034839;28;20486;-71
2022/03/18 11:01:23;;;;;;;27.27;24.88;;;10.30;99.90;;;;;;5038393;28;20072;-72
2022/03/18 11:03:52;;;;;;;27.60;25.60;;;10.00;99.90;;;;;;5025185;28;20046;-72
2022/03/18 11:06:19;;;;;;;28.60;26.23;;;10.10;99.90;;;;;;5030590;28;20140;-72
2022/03/18 11:08:50;;;;;;;28.08;25.80;;;10.00;99.90;;;;;;5008403;28;20107;-72
2022/03/18 11:11:18;;;;;;;27.25;25.20;;;10.20;99.90;;;;;;5042136;28;20314;-72
2022/03/18 11:13:48;;;;;;;26.35;24.75;;;10.20;99.90;;;;;;5041280;28;20525;-72
2022/03/18 11:16:27;;;;;;;27.20;25.50;;;10.00;99.90;;;;;;5041873;28;20128;-71
2022/03/18 11:18:55;;;;;;;27.05;25.25;;;9.90;99.90;;;;;;5023829;28;20049;-72
2022/03/18 11:21:24;;;;;;;26.35;24.55;;;10.00;99.90;;;;;;5023592;28;20272;-72
2022/03/18 11:23:55;;;;;;;27.38;25.42;;;10.20;99.90;;;;;;5042644;28;20052;-72
2022/03/18 11:26:22;;;;;;;27.25;25.27;;;9.90;99.90;;;;;;5022727;28;20099;-72
2022/03/18 11:29:16;;;;;;;28.67;26.20;;;9.90;99.90;;;;;;5034826;28;20076;-72
2022/03/18 11:32:10;;;;;;;27.08;25.10;;;10.10;99.90;;;;;;5024276;28;20049;-72
2022/03/18 11:34:59;;;;;;;27.00;25.30;;;10.50;99.90;;;;;;5021665;28;20057;-73
2022/03/18 11:37:28;;;;;;;26.35;24.33;;;10.50;99.90;;;;;;5003304;28;20482;-72
2022/03/18 11:40:22;;;;;;;27.55;25.50;;;10.30;99.90;;;;;;5035638;28;20390;-72
2022/03/18 11:42:49;;;;;;;26.25;24.55;;;10.10;99.90;;;;;;5023583;28;20041;-72
2022/03/18 11:45:32;;;;;;;28.42;26.50;;;10.10;99.90;;;;;;5022843;28;20045;-71
2022/03/18 11:47:59;;;;;;;26.60;24.60;;;10.00;99.90;;;;;;5019467;28;20057;-72
2022/03/18 11:50:42;;;;;;;27.38;25.48;;;10.10;99.90;;;;;;5003008;28;20046;-72
2022/03/18 11:53:14;;;;;;;26.80;25.20;;;10.20;99.90;;;;;;5003676;28;20081;-71
2022/03/18 11:55:45;;;;;;;27.55;24.95;;;10.30;99.90;;;;;;5003329;28;20096;-72
2022/03/18 11:58:32;;;;;;;27.05;25.15;;;10.80;99.90;;;;;;5013463;28;20041;-72
2022/03/18 12:00:58;;;;;;;26.60;24.65;;;11.20;99.90;;;;;;5017443;28;20045;-72
2022/03/18 12:03:36;;;;;;;28.15;25.92;;;11.30;99.90;;;;;;4992760;28;20045;-72
2022/03/18 12:06:03;;;;;;;27.75;25.52;;;11.30;99.90;;;;;;5025997;28;20155;-72
2022/03/18 12:08:52;;;;;;;27.65;25.63;;;11.10;99.90;;;;;;5007082;28;20275;-72
2022/03/18 12:11:35;;;;;;;25.30;23.83;;;10.90;99.90;;;;;;5040687;28;20083;-73
2022/03/18 12:14:06;;;;;;;26.08;24.25;;;11.20;99.90;;;;;;5023066;28;20156;-72
2022/03/18 12:16:32;;;;;;;25.88;24.08;;;11.10;99.90;;;;;;5022535;28;20072;-73
2022/03/18 12:19:17;;;;;;;28.95;26.75;;;11.30;99.90;;;;;;5039834;28;20450;-72
2022/03/18 12:21:47;;;;;;;26.33;24.83;;;11.40;99.90;;;;;;5022612;28;20136;-72
2022/03/18 12:24:13;;;;;;;26.77;25.17;;;11.30;99.90;;;;;;5040160;28;20095;-73
2022/03/18 12:26:40;;;;;;;27.15;25.08;;;11.50;99.90;;;;;;5038610;28;20086;-73
2022/03/18 12:29:08;;;;;;;26.38;24.45;;;11.40;99.90;;;;;;5036706;28;20049;-73
2022/03/18 12:31:35;;;;;;;26.85;24.85;;;11.30;99.90;;;;;;5016780;28;20041;-73
2022/03/18 12:34:07;;;;;;;27.00;25.13;;;11.60;99.90;;;;;;5002925;28;20055;-73
2022/03/18 12:36:39;;;;;;;25.60;24.02;;;11.90;99.90;;;;;;5012341;28;20095;-74
2022/03/18 12:39:13;;;;;;;26.98;25.42;;;12.00;99.90;;;;;;5021472;28;20738;-75
2022/03/18 12:41:42;;;;;;;27.08;25.38;;;12.00;99.90;;;;;;5016007;28;20044;-75
2022/03/18 12:44:32;;;;;;;27.42;25.60;;;11.70;99.90;;;;;;5061341;28;20533;-75
2022/03/18 12:47:05;;;;;;;27.17;25.45;;;12.10;99.90;;;;;;5042039;28;20048;-75
2022/03/18 12:49:36;;;;;;;27.23;25.35;;;11.80;99.90;;;;;;5025254;28;20095;-75
2022/03/18 12:52:13;;;;;;;27.30;25.10;;;11.60;99.90;;;;;;5039970;28;20083;-76